sensor_id;sensor_type;location;lat;lon;timestamp;temperature;humidity
11264;DHT22;5689;48.798;9.070;2022-09-01T00:02:05;14.90;99.90
11264;DHT22;5689;48.798;9.070;2022-09-01T00:04:36;14.80;99.90
11264;DHT22;5689;48.798;9.070;2022-09-01T00:07:05;14.60;99.90
11264;DHT22;5689;48.798;9.070;2022-09-01T00:09:34;14.50;99.90
11264;DHT22;5689;48.798;9.070;2022-09-01T00:12:05;14.50;99.90
11264;DHT22;5689;48.798;9.070;2022-09-01T00:14:38;14.50;99.90
11264;DHT22;5689;48.798;9.070;2022-09-01T00:17:09;14.60;99.90
11264;DHT22;5689;48.798;9.070;2022-09-01T00:19:37;14.50;99.90
11264;DHT22;5689;48.798;9.070;2022-09-01T00:22:06;14.60;99.90
11264;DHT22;5689;48.798;9.070;2022-09-01T00:24:35;14.60;99.90
11264;DHT22;5689;48.798;9.070;2022-09-01T00:27:04;14.40;99.90
11264;DHT22;5689;48.798;9.070;2022-09-01T00:29:32;14.40;99.90
11264;DHT22;5689;48.798;9.070;2022-09-01T00:32:01;14.50;99.90
11264;DHT22;5689;48.798;9.070;2022-09-01T00:34:29;14.40;99.90
11264;DHT22;5689;48.798;9.070;2022-09-01T00:36:57;14.50;99.90
11264;DHT22;5689;48.798;9.070;2022-09-01T00:39:26;14.40;99.90
11264;DHT22;5689;48.798;9.070;2022-09-01T00:41:54;14.40;99.90
11264;DHT22;5689;48.798;9.070;2022-09-01T00:47:04;14.30;99.90
11264;DHT22;5689;48.798;9.070;2022-09-01T00:49:37;14.20;99.90
11264;DHT22;5689;48.798;9.070;2022-09-01T00:52:08;14.10;99.90
11264;DHT22;5689;48.798;9.070;2022-09-01T00:54:40;14.20;99.90
11264;DHT22;5689;48.798;9.070;2022-09-01T00:57:10;14.10;99.90
11264;DHT22;5689;48.798;9.070;2022-09-01T00:59:45;14.10;99.90
11264;DHT22;5689;48.798;9.070;2022-09-01T01:02:30;14.20;99.90
11264;DHT22;5689;48.798;9.070;2022-09-01T01:04:58;14.00;99.90
11264;DHT22;5689;48.798;9.070;2022-09-01T01:07:27;14.10;99.90
11264;DHT22;5689;48.798;9.070;2022-09-01T01:09:55;14.10;99.90
11264;DHT22;5689;48.798;9.070;2022-09-01T01:12:24;14.10;99.90
11264;DHT22;5689;48.798;9.070;2022-09-01T01:14:54;14.10;99.90
11264;DHT22;5689;48.798;9.070;2022-09-01T01:17:23;14.10;99.90
11264;DHT22;5689;48.798;9.070;2022-09-01T01:19:52;14.10;99.90
11264;DHT22;5689;48.798;9.070;2022-09-01T01:22:53;14.20;99.90
11264;DHT22;5689;48.798;9.070;2022-09-01T01:25:33;14.20;99.90
11264;DHT22;5689;48.798;9.070;2022-09-01T01:28:11;14.10;99.90
11264;DHT22;5689;48.798;9.070;2022-09-01T01:30:42;13.90;99.90
11264;DHT22;5689;48.798;9.070;2022-09-01T01:33:10;14.10;99.90
11264;DHT22;5689;48.798;9.070;2022-09-01T01:35:39;14.20;99.90
11264;DHT22;5689;48.798;9.070;2022-09-01T01:38:07;14.10;99.90
11264;DHT22;5689;48.798;9.070;2022-09-01T01:40:38;14.00;99.90
11264;DHT22;5689;48.798;9.070;2022-09-01T01:43:07;14.00;99.90
11264;DHT22;5689;48.798;9.070;2022-09-01T01:45:38;14.00;99.90
11264;DHT22;5689;48.798;9.070;2022-09-01T01:48:06;13.90;99.90
11264;DHT22;5689;48.798;9.070;2022-09-01T01:50:37;13.80;99.90
11264;DHT22;5689;48.798;9.070;2022-09-01T01:53:07;13.80;99.90
11264;DHT22;5689;48.798;9.070;2022-09-01T01:55:40;13.80;99.90
11264;DHT22;5689;48.798;9.070;2022-09-01T01:58:09;13.80;99.90
11264;DHT22;5689;48.798;9.070;2022-09-01T02:00:38;13.70;99.90
11264;DHT22;5689;48.798;9.070;2022-09-01T02:03:08;13.70;99.90
11264;DHT22;5689;48.798;9.070;2022-09-01T02:05:38;13.60;99.90
11264;DHT22;5689;48.798;9.070;2022-09-01T02:08:09;13.60;99.90
11264;DHT22;5689;48.798;9.070;2022-09-01T02:10:41;13.50;99.90
11264;DHT22;5689;48.798;9.070;2022-09-01T02:13:11;13.60;99.90
11264;DHT22;5689;48.798;9.070;2022-09-01T02:15:43;13.70;99.90
11264;DHT22;5689;48.798;9.070;2022-09-01T02:18:13;13.70;99.90
11264;DHT22;5689;48.798;9.070;2022-09-01T02:20:42;13.60;99.90
11264;DHT22;5689;48.798;9.070;2022-09-01T02:23:11;13.60;99.90
11264;DHT22;5689;48.798;9.070;2022-09-01T02:25:44;13.70;99.90
11264;DHT22;5689;48.798;9.070;2022-09-01T02:28:25;13.60;99.90
11264;DHT22;5689;48.798;9.070;2022-09-01T02:30:54;13.50;99.90
11264;DHT22;5689;48.798;9.070;2022-09-01T02:33:24;13.40;99.90
11264;DHT22;5689;48.798;9.070;2022-09-01T02:35:55;13.40;99.90
11264;DHT22;5689;48.798;9.070;2022-09-01T02:38:24;13.30;99.90
11264;DHT22;5689;48.798;9.070;2022-09-01T02:40:58;13.30;99.90
11264;DHT22;5689;48.798;9.070;2022-09-01T02:43:28;13.40;99.90
11264;DHT22;5689;48.798;9.070;2022-09-01T02:45:59;13.40;99.90
11264;DHT22;5689;48.798;9.070;2022-09-01T02:48:31;13.30;99.90
11264;DHT22;5689;48.798;9.070;2022-09-01T02:51:03;13.20;99.90
11264;DHT22;5689;48.798;9.070;2022-09-01T02:53:33;13.10;99.90
11264;DHT22;5689;48.798;9.070;2022-09-01T02:56:05;13.00;99.90
11264;DHT22;5689;48.798;9.070;2022-09-01T02:58:35;13.00;99.90
11264;DHT22;5689;48.798;9.070;2022-09-01T03:01:11;13.10;99.90
11264;DHT22;5689;48.798;9.070;2022-09-01T03:03:40;13.10;99.90
11264;DHT22;5689;48.798;9.070;2022-09-01T03:06:08;13.10;99.90
11264;DHT22;5689;48.798;9.070;2022-09-01T03:08:39;13.00;99.90
11264;DHT22;5689;48.798;9.070;2022-09-01T03:11:08;13.00;99.90
11264;DHT22;5689;48.798;9.070;2022-09-01T03:13:39;13.00;99.90
11264;DHT22;5689;48.798;9.070;2022-09-01T03:16:08;13.10;99.90
11264;DHT22;5689;48.798;9.070;2022-09-01T03:18:37;13.20;99.90
11264;DHT22;5689;48.798;9.070;2022-09-01T03:21:06;13.10;99.90
11264;DHT22;5689;48.798;9.070;2022-09-01T03:23:35;13.20;99.90
11264;DHT22;5689;48.798;9.070;2022-09-01T03:26:04;13.10;99.90
11264;DHT22;5689;48.798;9.070;2022-09-01T03:28:33;12.90;99.90
11264;DHT22;5689;48.798;9.070;2022-09-01T03:31:04;12.90;99.90
11264;DHT22;5689;48.798;9.070;2022-09-01T03:33:33;12.80;99.90
11264;DHT22;5689;48.798;9.070;2022-09-01T03:36:03;13.00;99.90
11264;DHT22;5689;48.798;9.070;2022-09-01T03:38:31;13.00;99.90
11264;DHT22;5689;48.798;9.070;2022-09-01T03:41:03;13.10;99.90
11264;DHT22;5689;48.798;9.070;2022-09-01T03:43:33;13.00;99.90
11264;DHT22;5689;48.798;9.070;2022-09-01T03:46:03;13.10;99.90
11264;DHT22;5689;48.798;9.070;2022-09-01T03:48:31;13.00;99.90
11264;DHT22;5689;48.798;9.070;2022-09-01T03:50:59;13.20;99.90
11264;DHT22;5689;48.798;9.070;2022-09-01T03:53:32;13.10;99.90
11264;DHT22;5689;48.798;9.070;2022-09-01T03:56:04;13.10;99.90
11264;DHT22;5689;48.798;9.070;2022-09-01T03:58:36;13.00;99.90
11264;DHT22;5689;48.798;9.070;2022-09-01T04:01:04;13.00;99.90
11264;DHT22;5689;48.798;9.070;2022-09-01T04:03:33;13.00;99.90
11264;DHT22;5689;48.798;9.070;2022-09-01T04:06:01;13.00;99.90
11264;DHT22;5689;48.798;9.070;2022-09-01T04:08:32;13.20;99.90
11264;DHT22;5689;48.798;9.070;2022-09-01T04:11:09;13.30;99.90
11264;DHT22;5689;48.798;9.070;2022-09-01T04:13:41;13.20;99.90
11264;DHT22;5689;48.798;9.070;2022-09-01T04:16:17;13.10;99.90
11264;DHT22;5689;48.798;9.070;2022-09-01T04:18:59;13.10;99.90
11264;DHT22;5689;48.798;9.070;2022-09-01T04:21:29;13.10;99.90
11264;DHT22;5689;48.798;9.070;2022-09-01T04:23:59;13.30;99.90
11264;DHT22;5689;48.798;9.070;2022-09-01T04:26:32;13.20;99.90
11264;DHT22;5689;48.798;9.070;2022-09-01T04:29:01;13.10;99.90
11264;DHT22;5689;48.798;9.070;2022-09-01T04:31:29;13.00;99.90
11264;DHT22;5689;48.798;9.070;2022-09-01T04:33:57;13.00;99.90
11264;DHT22;5689;48.798;9.070;2022-09-01T04:36:28;12.90;99.90
11264;DHT22;5689;48.798;9.070;2022-09-01T04:39:01;12.90;99.90
11264;DHT22;5689;48.798;9.070;2022-09-01T04:41:38;12.80;99.90
11264;DHT22;5689;48.798;9.070;2022-09-01T04:44:08;12.70;99.90
11264;DHT22;5689;48.798;9.070;2022-09-01T04:46:40;12.80;99.90
11264;DHT22;5689;48.798;9.070;2022-09-01T04:49:14;12.90;99.90
11264;DHT22;5689;48.798;9.070;2022-09-01T04:51:48;12.90;99.90
11264;DHT22;5689;48.798;9.070;2022-09-01T04:54:19;12.80;99.90
11264;DHT22;5689;48.798;9.070;2022-09-01T04:56:50;12.70;99.90
11264;DHT22;5689;48.798;9.070;2022-09-01T04:59:22;12.50;99.90
11264;DHT22;5689;48.798;9.070;2022-09-01T05:01:53;12.80;99.90
11264;DHT22;5689;48.798;9.070;2022-09-01T05:04:25;13.10;99.90
11264;DHT22;5689;48.798;9.070;2022-09-01T05:06:55;13.00;99.90
11264;DHT22;5689;48.798;9.070;2022-09-01T05:09:30;12.80;99.90
11264;DHT22;5689;48.798;9.070;2022-09-01T05:12:09;12.90;99.90
11264;DHT22;5689;48.798;9.070;2022-09-01T05:14:45;12.90;99.90
11264;DHT22;5689;48.798;9.070;2022-09-01T05:17:16;13.00;99.90
11264;DHT22;5689;48.798;9.070;2022-09-01T05:19:47;13.00;99.90
11264;DHT22;5689;48.798;9.070;2022-09-01T05:22:17;13.00;99.90
11264;DHT22;5689;48.798;9.070;2022-09-01T05:24:56;13.10;99.90
11264;DHT22;5689;48.798;9.070;2022-09-01T05:27:28;13.20;99.90
11264;DHT22;5689;48.798;9.070;2022-09-01T05:29:58;13.20;99.90
11264;DHT22;5689;48.798;9.070;2022-09-01T05:32:27;13.40;99.90
11264;DHT22;5689;48.798;9.070;2022-09-01T05:34:59;13.30;99.90
11264;DHT22;5689;48.798;9.070;2022-09-01T05:37:27;13.30;99.90
11264;DHT22;5689;48.798;9.070;2022-09-01T05:39:56;13.40;99.90
11264;DHT22;5689;48.798;9.070;2022-09-01T05:42:24;13.70;99.90
11264;DHT22;5689;48.798;9.070;2022-09-01T05:44:54;14.10;99.90
11264;DHT22;5689;48.798;9.070;2022-09-01T05:47:25;14.50;99.90
11264;DHT22;5689;48.798;9.070;2022-09-01T05:49:53;15.30;99.90
11264;DHT22;5689;48.798;9.070;2022-09-01T05:52:24;15.70;99.90
11264;DHT22;5689;48.798;9.070;2022-09-01T05:54:53;15.90;99.90
11264;DHT22;5689;48.798;9.070;2022-09-01T05:57:22;16.30;99.90
11264;DHT22;5689;48.798;9.070;2022-09-01T05:59:59;16.40;99.90
11264;DHT22;5689;48.798;9.070;2022-09-01T06:02:40;16.10;99.90
11264;DHT22;5689;48.798;9.070;2022-09-01T06:05:19;15.60;99.90
11264;DHT22;5689;48.798;9.070;2022-09-01T06:07:49;15.30;99.90
11264;DHT22;5689;48.798;9.070;2022-09-01T06:10:23;15.40;99.90
11264;DHT22;5689;48.798;9.070;2022-09-01T06:12:52;15.50;99.90
11264;DHT22;5689;48.798;9.070;2022-09-01T06:15:21;15.30;99.90
11264;DHT22;5689;48.798;9.070;2022-09-01T06:17:53;15.20;99.90
11264;DHT22;5689;48.798;9.070;2022-09-01T06:20:22;15.60;99.90
11264;DHT22;5689;48.798;9.070;2022-09-01T06:22:50;16.20;99.90
11264;DHT22;5689;48.798;9.070;2022-09-01T06:25:20;16.50;99.90
11264;DHT22;5689;48.798;9.070;2022-09-01T06:27:48;16.30;99.90
11264;DHT22;5689;48.798;9.070;2022-09-01T06:30:19;16.10;99.90
11264;DHT22;5689;48.798;9.070;2022-09-01T06:32:59;15.90;99.90
11264;DHT22;5689;48.798;9.070;2022-09-01T06:35:30;15.80;99.90
11264;DHT22;5689;48.798;9.070;2022-09-01T06:37:58;15.80;99.90
11264;DHT22;5689;48.798;9.070;2022-09-01T06:40:47;16.00;99.90
11264;DHT22;5689;48.798;9.070;2022-09-01T06:43:15;16.60;99.90
11264;DHT22;5689;48.798;9.070;2022-09-01T06:45:49;16.70;99.90
11264;DHT22;5689;48.798;9.070;2022-09-01T06:48:23;16.50;99.90
11264;DHT22;5689;48.798;9.070;2022-09-01T06:51:01;16.40;99.90
11264;DHT22;5689;48.798;9.070;2022-09-01T06:53:50;16.70;99.90
11264;DHT22;5689;48.798;9.070;2022-09-01T06:56:25;17.00;99.90
11264;DHT22;5689;48.798;9.070;2022-09-01T06:58:54;16.90;99.90
11264;DHT22;5689;48.798;9.070;2022-09-01T07:01:23;17.30;99.90
11264;DHT22;5689;48.798;9.070;2022-09-01T07:03:54;17.30;99.90
11264;DHT22;5689;48.798;9.070;2022-09-01T07:06:43;17.20;99.90
11264;DHT22;5689;48.798;9.070;2022-09-01T07:09:45;17.20;99.90
11264;DHT22;5689;48.798;9.070;2022-09-01T07:12:22;17.50;99.90
11264;DHT22;5689;48.798;9.070;2022-09-01T07:14:51;17.30;99.90
11264;DHT22;5689;48.798;9.070;2022-09-01T07:17:41;17.70;99.90
11264;DHT22;5689;48.798;9.070;2022-09-01T07:20:10;17.90;99.90
11264;DHT22;5689;48.798;9.070;2022-09-01T07:22:57;17.70;99.90
11264;DHT22;5689;48.798;9.070;2022-09-01T07:25:29;18.50;99.90
11264;DHT22;5689;48.798;9.070;2022-09-01T07:28:06;19.20;99.90
11264;DHT22;5689;48.798;9.070;2022-09-01T07:30:39;20.00;99.90
11264;DHT22;5689;48.798;9.070;2022-09-01T07:33:09;20.50;99.90
11264;DHT22;5689;48.798;9.070;2022-09-01T07:36:02;19.30;99.90
11264;DHT22;5689;48.798;9.070;2022-09-01T07:38:54;19.00;99.90
11264;DHT22;5689;48.798;9.070;2022-09-01T07:41:53;19.30;99.90
11264;DHT22;5689;48.798;9.070;2022-09-01T07:45:01;19.50;99.90
11264;DHT22;5689;48.798;9.070;2022-09-01T07:47:57;19.60;99.90
11264;DHT22;5689;48.798;9.070;2022-09-01T07:50:41;19.60;99.90
11264;DHT22;5689;48.798;9.070;2022-09-01T07:53:35;20.20;99.90
11264;DHT22;5689;48.798;9.070;2022-09-01T07:56:07;20.20;99.90
11264;DHT22;5689;48.798;9.070;2022-09-01T07:58:41;20.70;99.90
11264;DHT22;5689;48.798;9.070;2022-09-01T08:01:12;21.00;99.90
11264;DHT22;5689;48.798;9.070;2022-09-01T08:03:41;20.50;99.90
11264;DHT22;5689;48.798;9.070;2022-09-01T08:06:12;20.60;99.90
11264;DHT22;5689;48.798;9.070;2022-09-01T08:08:42;21.10;99.90
11264;DHT22;5689;48.798;9.070;2022-09-01T08:11:15;20.80;99.90
11264;DHT22;5689;48.798;9.070;2022-09-01T08:13:48;21.20;99.90
11264;DHT22;5689;48.798;9.070;2022-09-01T08:16:17;21.20;99.90
11264;DHT22;5689;48.798;9.070;2022-09-01T08:18:47;21.20;99.90
11264;DHT22;5689;48.798;9.070;2022-09-01T08:21:34;20.40;99.90
11264;DHT22;5689;48.798;9.070;2022-09-01T08:24:10;20.00;99.90
11264;DHT22;5689;48.798;9.070;2022-09-01T08:26:38;19.90;99.90
11264;DHT22;5689;48.798;9.070;2022-09-01T08:29:07;19.90;99.90
11264;DHT22;5689;48.798;9.070;2022-09-01T08:31:40;20.00;99.90
11264;DHT22;5689;48.798;9.070;2022-09-01T08:34:08;19.60;99.90
11264;DHT22;5689;48.798;9.070;2022-09-01T08:36:38;19.60;99.90
11264;DHT22;5689;48.798;9.070;2022-09-01T08:39:06;20.00;99.90
11264;DHT22;5689;48.798;9.070;2022-09-01T08:41:41;20.00;99.90
11264;DHT22;5689;48.798;9.070;2022-09-01T08:44:25;20.50;99.90
11264;DHT22;5689;48.798;9.070;2022-09-01T08:47:02;20.10;99.90
11264;DHT22;5689;48.798;9.070;2022-09-01T08:49:33;20.50;99.90
11264;DHT22;5689;48.798;9.070;2022-09-01T08:52:23;20.50;99.90
11264;DHT22;5689;48.798;9.070;2022-09-01T08:55:00;20.10;99.90
11264;DHT22;5689;48.798;9.070;2022-09-01T08:57:34;19.90;99.90
11264;DHT22;5689;48.798;9.070;2022-09-01T09:00:19;19.90;99.90
11264;DHT22;5689;48.798;9.070;2022-09-01T09:02:55;20.00;99.90
11264;DHT22;5689;48.798;9.070;2022-09-01T09:05:32;19.90;99.90
11264;DHT22;5689;48.798;9.070;2022-09-01T09:08:16;19.70;99.90
11264;DHT22;5689;48.798;9.070;2022-09-01T09:10:53;20.00;99.90
11264;DHT22;5689;48.798;9.070;2022-09-01T09:13:30;20.20;99.90
11264;DHT22;5689;48.798;9.070;2022-09-01T09:16:07;19.80;99.90
11264;DHT22;5689;48.798;9.070;2022-09-01T09:18:41;19.90;99.90
11264;DHT22;5689;48.798;9.070;2022-09-01T09:21:29;19.90;99.90
11264;DHT22;5689;48.798;9.070;2022-09-01T09:24:06;19.90;99.90
11264;DHT22;5689;48.798;9.070;2022-09-01T09:26:35;20.00;99.90
11264;DHT22;5689;48.798;9.070;2022-09-01T09:29:12;19.80;99.90
11264;DHT22;5689;48.798;9.070;2022-09-01T09:31:40;19.90;99.90
11264;DHT22;5689;48.798;9.070;2022-09-01T09:34:17;20.10;99.90
11264;DHT22;5689;48.798;9.070;2022-09-01T09:36:55;20.10;99.90
11264;DHT22;5689;48.798;9.070;2022-09-01T09:39:23;19.90;99.90
11264;DHT22;5689;48.798;9.070;2022-09-01T09:42:03;20.10;99.90
11264;DHT22;5689;48.798;9.070;2022-09-01T09:44:41;20.00;99.90
11264;DHT22;5689;48.798;9.070;2022-09-01T09:47:17;20.70;99.90
11264;DHT22;5689;48.798;9.070;2022-09-01T09:50:27;20.90;99.90
11264;DHT22;5689;48.798;9.070;2022-09-01T09:53:12;21.10;99.90
11264;DHT22;5689;48.798;9.070;2022-09-01T09:55:59;21.30;99.90
11264;DHT22;5689;48.798;9.070;2022-09-01T09:58:34;20.90;99.90
11264;DHT22;5689;48.798;9.070;2022-09-01T10:01:08;20.40;99.90
11264;DHT22;5689;48.798;9.070;2022-09-01T10:03:43;20.20;99.90
11264;DHT22;5689;48.798;9.070;2022-09-01T10:06:28;20.40;99.90
11264;DHT22;5689;48.798;9.070;2022-09-01T10:08:57;20.90;99.90
11264;DHT22;5689;48.798;9.070;2022-09-01T10:11:30;21.50;99.90
11264;DHT22;5689;48.798;9.070;2022-09-01T10:14:00;23.10;99.90
11264;DHT22;5689;48.798;9.070;2022-09-01T10:16:31;24.40;99.90
11264;DHT22;5689;48.798;9.070;2022-09-01T10:19:01;25.10;99.90
11264;DHT22;5689;48.798;9.070;2022-09-01T10:21:34;26.70;99.90
11264;DHT22;5689;48.798;9.070;2022-09-01T10:24:11;26.90;99.90
11264;DHT22;5689;48.798;9.070;2022-09-01T10:26:48;26.50;99.90
11264;DHT22;5689;48.798;9.070;2022-09-01T10:29:21;26.30;99.50
11264;DHT22;5689;48.798;9.070;2022-09-01T10:31:55;25.40;99.90
11264;DHT22;5689;48.798;9.070;2022-09-01T10:34:36;24.00;99.90
11264;DHT22;5689;48.798;9.070;2022-09-01T10:37:07;23.90;99.90
11264;DHT22;5689;48.798;9.070;2022-09-01T10:42:58;22.30;99.90
11264;DHT22;5689;48.798;9.070;2022-09-01T10:45:31;22.20;99.90
11264;DHT22;5689;48.798;9.070;2022-09-01T10:48:23;22.50;99.90
11264;DHT22;5689;48.798;9.070;2022-09-01T10:57:31;25.80;98.90
11264;DHT22;5689;48.798;9.070;2022-09-01T11:00:48;23.70;99.90
11264;DHT22;5689;48.798;9.070;2022-09-01T11:04:00;23.60;99.90
11264;DHT22;5689;48.798;9.070;2022-09-01T11:06:58;25.20;99.90
11264;DHT22;5689;48.798;9.070;2022-09-01T11:09:44;27.20;96.30
11264;DHT22;5689;48.798;9.070;2022-09-01T11:12:44;29.70;90.50
11264;DHT22;5689;48.798;9.070;2022-09-01T11:15:33;30.70;83.60
11264;DHT22;5689;48.798;9.070;2022-09-01T11:18:07;28.20;84.50
11264;DHT22;5689;48.798;9.070;2022-09-01T11:20:37;26.00;90.00
11264;DHT22;5689;48.798;9.070;2022-09-01T11:23:11;23.80;94.70
11264;DHT22;5689;48.798;9.070;2022-09-01T11:25:42;24.20;93.90
11264;DHT22;5689;48.798;9.070;2022-09-01T11:31:22;26.10;91.40
11264;DHT22;5689;48.798;9.070;2022-09-01T11:36:51;23.00;96.50
11264;DHT22;5689;48.798;9.070;2022-09-01T11:39:32;21.90;98.90
11264;DHT22;5689;48.798;9.070;2022-09-01T11:42:02;22.10;99.60
11264;DHT22;5689;48.798;9.070;2022-09-01T11:44:38;22.20;99.90
11264;DHT22;5689;48.798;9.070;2022-09-01T11:47:10;22.20;99.90
11264;DHT22;5689;48.798;9.070;2022-09-01T11:49:50;23.10;99.90
11264;DHT22;5689;48.798;9.070;2022-09-01T11:52:21;23.80;99.80
11264;DHT22;5689;48.798;9.070;2022-09-01T11:54:50;24.70;97.60
11264;DHT22;5689;48.798;9.070;2022-09-01T11:57:21;24.90;96.40
11264;DHT22;5689;48.798;9.070;2022-09-01T11:59:50;23.10;97.80
11264;DHT22;5689;48.798;9.070;2022-09-01T12:02:20;22.80;98.80
11264;DHT22;5689;48.798;9.070;2022-09-01T12:04:53;24.60;97.80
11264;DHT22;5689;48.798;9.070;2022-09-01T12:10:19;28.80;90.40
11264;DHT22;5689;48.798;9.070;2022-09-01T12:12:49;27.70;90.00
11264;DHT22;5689;48.798;9.070;2022-09-01T12:15:26;26.70;90.70
11264;DHT22;5689;48.798;9.070;2022-09-01T12:18:10;26.70;91.10
11264;DHT22;5689;48.798;9.070;2022-09-01T12:20:40;25.60;91.20
11264;DHT22;5689;48.798;9.070;2022-09-01T12:23:18;24.40;94.30
11264;DHT22;5689;48.798;9.070;2022-09-01T12:25:50;23.70;95.20
11264;DHT22;5689;48.798;9.070;2022-09-01T12:28:18;22.80;97.20
11264;DHT22;5689;48.798;9.070;2022-09-01T12:30:46;22.90;97.30
11264;DHT22;5689;48.798;9.070;2022-09-01T12:33:17;22.60;97.10
11264;DHT22;5689;48.798;9.070;2022-09-01T12:35:50;23.90;96.90
11264;DHT22;5689;48.798;9.070;2022-09-01T12:38:22;26.00;93.30
11264;DHT22;5689;48.798;9.070;2022-09-01T12:40:52;25.90;92.90
11264;DHT22;5689;48.798;9.070;2022-09-01T12:43:35;24.30;94.40
11264;DHT22;5689;48.798;9.070;2022-09-01T12:46:05;24.40;94.90
11264;DHT22;5689;48.798;9.070;2022-09-01T12:48:37;25.30;93.30
11264;DHT22;5689;48.798;9.070;2022-09-01T12:51:18;24.50;94.00
11264;DHT22;5689;48.798;9.070;2022-09-01T12:53:51;25.50;94.00
11264;DHT22;5689;48.798;9.070;2022-09-01T12:56:25;28.90;90.10
11264;DHT22;5689;48.798;9.070;2022-09-01T12:59:06;31.40;76.20
11264;DHT22;5689;48.798;9.070;2022-09-01T13:01:39;33.00;72.10
11264;DHT22;5689;48.798;9.070;2022-09-01T13:04:26;33.10;70.60
11264;DHT22;5689;48.798;9.070;2022-09-01T13:07:01;33.30;66.90
11264;DHT22;5689;48.798;9.070;2022-09-01T13:09:29;29.60;72.50
11264;DHT22;5689;48.798;9.070;2022-09-01T13:12:14;27.00;81.60
11264;DHT22;5689;48.798;9.070;2022-09-01T13:14:42;25.70;85.30
11264;DHT22;5689;48.798;9.070;2022-09-01T13:17:10;24.20;90.30
11264;DHT22;5689;48.798;9.070;2022-09-01T13:19:40;23.90;91.00
11264;DHT22;5689;48.798;9.070;2022-09-01T13:22:09;23.00;93.30
11264;DHT22;5689;48.798;9.070;2022-09-01T13:24:37;23.30;93.30
11264;DHT22;5689;48.798;9.070;2022-09-01T13:27:06;23.90;92.10
11264;DHT22;5689;48.798;9.070;2022-09-01T13:29:50;23.80;92.20
11264;DHT22;5689;48.798;9.070;2022-09-01T13:32:19;24.00;92.10
11264;DHT22;5689;48.798;9.070;2022-09-01T13:34:49;24.90;91.70
11264;DHT22;5689;48.798;9.070;2022-09-01T13:37:19;25.10;89.10
11264;DHT22;5689;48.798;9.070;2022-09-01T13:39:48;25.50;88.80
11264;DHT22;5689;48.798;9.070;2022-09-01T13:42:16;24.90;90.20
11264;DHT22;5689;48.798;9.070;2022-09-01T13:44:45;24.80;89.50
11264;DHT22;5689;48.798;9.070;2022-09-01T13:47:14;25.90;86.70
11264;DHT22;5689;48.798;9.070;2022-09-01T13:49:58;26.60;84.70
11264;DHT22;5689;48.798;9.070;2022-09-01T13:52:48;27.10;83.40
11264;DHT22;5689;48.798;9.070;2022-09-01T13:55:19;28.40;80.10
11264;DHT22;5689;48.798;9.070;2022-09-01T13:57:48;27.50;84.00
11264;DHT22;5689;48.798;9.070;2022-09-01T14:00:20;29.10;81.80
11264;DHT22;5689;48.798;9.070;2022-09-01T14:02:51;30.70;77.50
11264;DHT22;5689;48.798;9.070;2022-09-01T14:05:23;28.60;78.40
11264;DHT22;5689;48.798;9.070;2022-09-01T14:07:52;27.40;82.30
11264;DHT22;5689;48.798;9.070;2022-09-01T14:10:21;25.60;83.90
11264;DHT22;5689;48.798;9.070;2022-09-01T14:12:50;24.40;86.60
11264;DHT22;5689;48.798;9.070;2022-09-01T14:15:19;23.40;90.10
11264;DHT22;5689;48.798;9.070;2022-09-01T14:17:52;23.20;91.40
11264;DHT22;5689;48.798;9.070;2022-09-01T14:20:24;22.80;92.00
11264;DHT22;5689;48.798;9.070;2022-09-01T14:22:54;22.70;92.00
11264;DHT22;5689;48.798;9.070;2022-09-01T14:25:22;22.90;92.50
11264;DHT22;5689;48.798;9.070;2022-09-01T14:27:51;24.40;90.20
11264;DHT22;5689;48.798;9.070;2022-09-01T14:30:21;25.70;88.30
11264;DHT22;5689;48.798;9.070;2022-09-01T14:32:51;26.50;84.30
11264;DHT22;5689;48.798;9.070;2022-09-01T14:35:21;29.60;78.00
11264;DHT22;5689;48.798;9.070;2022-09-01T14:37:52;29.10;73.20
11264;DHT22;5689;48.798;9.070;2022-09-01T14:40:22;28.20;76.00
11264;DHT22;5689;48.798;9.070;2022-09-01T14:42:51;29.50;72.30
11264;DHT22;5689;48.798;9.070;2022-09-01T14:45:21;31.40;70.00
11264;DHT22;5689;48.798;9.070;2022-09-01T14:47:51;32.90;63.60
11264;DHT22;5689;48.798;9.070;2022-09-01T14:50:21;31.10;66.30
11264;DHT22;5689;48.798;9.070;2022-09-01T14:52:52;31.70;66.40
11264;DHT22;5689;48.798;9.070;2022-09-01T14:55:23;31.10;66.70
11264;DHT22;5689;48.798;9.070;2022-09-01T14:57:52;31.10;67.40
11264;DHT22;5689;48.798;9.070;2022-09-01T15:00:21;30.30;69.70
11264;DHT22;5689;48.798;9.070;2022-09-01T15:02:50;29.60;70.80
11264;DHT22;5689;48.798;9.070;2022-09-01T15:05:19;29.10;73.10
11264;DHT22;5689;48.798;9.070;2022-09-01T15:07:47;29.00;71.80
11264;DHT22;5689;48.798;9.070;2022-09-01T15:10:18;29.90;70.60
11264;DHT22;5689;48.798;9.070;2022-09-01T15:12:49;27.60;73.80
11264;DHT22;5689;48.798;9.070;2022-09-01T15:15:17;25.50;78.30
11264;DHT22;5689;48.798;9.070;2022-09-01T15:17:46;26.40;77.50
11264;DHT22;5689;48.798;9.070;2022-09-01T15:20:14;28.90;73.30
11264;DHT22;5689;48.798;9.070;2022-09-01T15:22:56;28.70;70.00
11264;DHT22;5689;48.798;9.070;2022-09-01T15:25:24;26.30;74.20
11264;DHT22;5689;48.798;9.070;2022-09-01T15:27:54;26.20;76.40
11264;DHT22;5689;48.798;9.070;2022-09-01T15:30:22;27.30;72.00
11264;DHT22;5689;48.798;9.070;2022-09-01T15:32:53;29.50;67.40
11264;DHT22;5689;48.798;9.070;2022-09-01T15:35:22;29.40;66.90
11264;DHT22;5689;48.798;9.070;2022-09-01T15:37:50;29.00;66.10
11264;DHT22;5689;48.798;9.070;2022-09-01T15:40:18;28.40;67.40
11264;DHT22;5689;48.798;9.070;2022-09-01T15:42:47;29.30;66.30
11264;DHT22;5689;48.798;9.070;2022-09-01T15:45:18;28.40;68.60
11264;DHT22;5689;48.798;9.070;2022-09-01T15:47:47;28.90;68.30
11264;DHT22;5689;48.798;9.070;2022-09-01T15:50:17;28.30;68.60
11264;DHT22;5689;48.798;9.070;2022-09-01T15:52:49;28.70;68.40
11264;DHT22;5689;48.798;9.070;2022-09-01T15:55:19;28.40;69.10
11264;DHT22;5689;48.798;9.070;2022-09-01T15:57:47;26.30;72.90
11264;DHT22;5689;48.798;9.070;2022-09-01T16:00:17;25.40;77.30
11264;DHT22;5689;48.798;9.070;2022-09-01T16:02:46;25.80;74.90
11264;DHT22;5689;48.798;9.070;2022-09-01T16:05:14;26.80;72.70
11264;DHT22;5689;48.798;9.070;2022-09-01T16:07:43;26.50;73.80
11264;DHT22;5689;48.798;9.070;2022-09-01T16:10:12;27.10;72.70
11264;DHT22;5689;48.798;9.070;2022-09-01T16:12:42;26.10;74.10
11264;DHT22;5689;48.798;9.070;2022-09-01T16:15:12;26.80;75.00
11264;DHT22;5689;48.798;9.070;2022-09-01T16:18:00;27.00;73.80
11264;DHT22;5689;48.798;9.070;2022-09-01T16:20:35;27.00;72.70
11264;DHT22;5689;48.798;9.070;2022-09-01T16:23:14;26.40;74.80
11264;DHT22;5689;48.798;9.070;2022-09-01T16:25:44;26.20;75.10
11264;DHT22;5689;48.798;9.070;2022-09-01T16:28:21;26.90;73.50
11264;DHT22;5689;48.798;9.070;2022-09-01T16:30:54;26.80;73.00
11264;DHT22;5689;48.798;9.070;2022-09-01T16:33:26;26.50;74.50
11264;DHT22;5689;48.798;9.070;2022-09-01T16:36:18;25.40;76.70
11264;DHT22;5689;48.798;9.070;2022-09-01T16:38:51;24.00;81.40
11264;DHT22;5689;48.798;9.070;2022-09-01T16:41:37;23.70;82.70
11264;DHT22;5689;48.798;9.070;2022-09-01T16:44:19;23.30;84.80
11264;DHT22;5689;48.798;9.070;2022-09-01T16:46:56;22.80;86.00